Time;durP1;ratioP1;P1;durP2;ratioP2;P2;SDS_P1;SDS_P2;PMS_P1;PMS_P2;Temp;Humidity;BMP_temperature;BMP_pressure;BME280_temperature;BME280_humidity;BME280_pressure;Samples;Min_cycle;Max_cycle;Signal;HPM_P1;HPM_P2
2022/05/11 00:00:57;;;;;;;6.70;4.30;;;;;;;;;;5029407;28;20046;-65
2022/05/11 00:03:24;;;;;;;7.35;4.35;;;;;;;;;;5026800;28;20061;-66
2022/05/11 00:05:51;;;;;;;7.93;3.95;;;;;;;;;;5026988;28;20060;-65
2022/05/11 00:08:18;;;;;;;7.63;4.15;;;;;;;;;;5003749;28;20709;-65
2022/05/11 00:10:45;;;;;;;7.25;4.32;;;;;;;;;;5026695;28;20063;-66
2022/05/11 00:13:11;;;;;;;8.13;4.45;;;;;;;;;;5027246;28;20074;-66
2022/05/11 00:15:38;;;;;;;8.88;4.90;;;;;;;;;;5025803;28;20124;-65
2022/05/11 00:18:05;;;;;;;8.23;4.20;;;;;;;;;;5005982;28;20044;-66
2022/05/11 00:20:31;;;;;;;7.40;4.30;;;;;;;;;;5027039;28;20098;-65
2022/05/11 00:22:59;;;;;;;6.78;3.70;;;;;;;;;;5026868;28;20041;-65
2022/05/11 00:25:27;;;;;;;7.13;4.05;;;;;;;;;;5022475;28;20809;-66
2022/05/11 00:27:54;;;;;;;6.68;3.85;;;;;;;;;;5027802;28;20041;-65
2022/05/11 00:30:21;;;;;;;7.38;3.63;;;;;;;;;;5027945;28;20037;-65
2022/05/11 00:32:48;;;;;;;6.20;3.42;;;;;;;;;;5026721;28;20509;-65
2022/05/11 00:35:15;;;;;;;7.30;3.83;;;;;;;;;;5026376;28;20040;-65
2022/05/11 00:37:44;;;;;;;6.95;3.40;;;;;;;;;;5025591;28;20095;-66
2022/05/11 00:40:11;;;;;;;7.75;3.90;;;;;;;;;;5027438;28;20048;-66
2022/05/11 00:42:38;;;;;;;6.15;3.38;;;;;;;;;;5026823;28;20135;-67
2022/05/11 00:45:05;;;;;;;6.78;3.97;;;;;;;;;;5026357;28;20040;-64
2022/05/11 00:47:35;;;;;;;7.68;3.05;;;;;;;;;;5026681;28;20034;-66
2022/05/11 00:50:08;;;;;;;8.32;3.38;;;;;;;;;;5027475;28;20337;-65
2022/05/11 00:52:37;;;;;;;6.53;3.42;;;;;;;;;;5025062;28;20037;-67
2022/05/11 00:55:06;;;;;;;6.90;3.70;;;;;;;;;;5026950;28;20034;-67
2022/05/11 00:57:53;;;;;;;5.78;3.15;;;;;;;;;;5023939;28;20072;-66
2022/05/11 01:00:23;;;;;;;12.77;3.33;;;;;;;;;;5000477;28;20486;-67
2022/05/11 01:02:53;;;;;;;7.15;3.20;;;;;;;;;;5027152;28;20057;-66
2022/05/11 01:05:22;;;;;;;6.30;3.05;;;;;;;;;;5026438;28;20501;-67
2022/05/11 01:07:49;;;;;;;5.38;2.63;;;;;;;;;;5026430;28;20041;-67
2022/05/11 01:10:16;;;;;;;7.22;4.10;;;;;;;;;;5008734;28;20103;-66
2022/05/11 01:12:44;;;;;;;7.70;4.40;;;;;;;;;;5026406;28;20040;-66
2022/05/11 01:15:12;;;;;;;11.10;4.05;;;;;;;;;;5026677;28;20453;-66
2022/05/11 01:17:40;;;;;;;7.47;3.85;;;;;;;;;;5027773;28;22286;-66
2022/05/11 01:20:08;;;;;;;7.63;3.60;;;;;;;;;;5028019;28;20056;-66
2022/05/11 01:22:35;;;;;;;7.65;4.00;;;;;;;;;;5027276;28;20128;-67
2022/05/11 01:25:03;;;;;;;6.93;3.40;;;;;;;;;;5029029;28;20042;-67
2022/05/11 01:27:32;;;;;;;6.68;3.67;;;;;;;;;;5027547;28;20034;-66
2022/05/11 01:30:07;;;;;;;6.47;3.58;;;;;;;;;;5027474;28;20036;-66
2022/05/11 01:32:35;;;;;;;6.45;3.47;;;;;;;;;;5026544;28;20049;-66
2022/05/11 01:35:08;;;;;;;7.75;3.95;;;;;;;;;;5027117;28;20056;-67
2022/05/11 01:37:39;;;;;;;7.03;4.03;;;;;;;;;;5026802;28;20139;-67
2022/05/11 01:40:06;;;;;;;9.07;3.97;;;;;;;;;;5027956;28;20500;-66
2022/05/11 01:42:32;;;;;;;6.93;3.95;;;;;;;;;;5027639;28;20176;-66
2022/05/11 01:44:59;;;;;;;6.53;3.50;;;;;;;;;;5026911;28;20544;-66
2022/05/11 01:47:26;;;;;;;6.50;3.88;;;;;;;;;;5028181;28;20157;-65
2022/05/11 01:49:52;;;;;;;7.07;3.97;;;;;;;;;;5028195;28;20075;-66
2022/05/11 01:52:22;;;;;;;10.30;4.03;;;;;;;;;;5026970;28;20037;-66
2022/05/11 01:54:49;;;;;;;6.80;3.47;;;;;;;;;;5025865;28;20049;-66
2022/05/11 01:57:15;;;;;;;6.07;3.20;;;;;;;;;;5030011;28;20044;-65
2022/05/11 01:59:42;;;;;;;6.35;3.63;;;;;;;;;;5028529;28;20056;-66
2022/05/11 02:02:09;;;;;;;7.90;4.05;;;;;;;;;;5028910;28;20044;-65
2022/05/11 02:10:06;;;;;;;6.32;3.70;;;;;;;;;;5026667;28;20048;-67
2022/05/11 02:12:33;;;;;;;6.25;3.97;;;;;;;;;;5028755;28;20052;-65
2022/05/11 02:14:59;;;;;;;8.32;3.97;;;;;;;;;;5029701;28;20045;-65
2022/05/11 02:17:26;;;;;;;6.75;4.55;;;;;;;;;;5031607;28;20046;-66
2022/05/11 02:19:53;;;;;;;8.45;4.18;;;;;;;;;;5031681;28;20044;-66
2022/05/11 02:22:19;;;;;;;8.13;4.05;;;;;;;;;;5030558;28;20043;-66
2022/05/11 02:24:46;;;;;;;6.97;3.92;;;;;;;;;;5029707;28;20065;-65
2022/05/11 02:27:13;;;;;;;9.70;4.43;;;;;;;;;;5030358;28;20050;-65
2022/05/11 02:29:39;;;;;;;8.48;4.43;;;;;;;;;;5029849;28;20033;-66
2022/05/11 02:32:06;;;;;;;10.25;4.05;;;;;;;;;;5031721;28;20049;-65
2022/05/11 02:37:18;;;;;;;7.85;4.70;;;;;;;;;;5029890;28;20094;-66
2022/05/11 02:39:45;;;;;;;7.63;4.28;;;;;;;;;;5026776;28;20052;-66
2022/05/11 02:42:12;;;;;;;9.68;3.70;;;;;;;;;;5030676;28;20033;-65
2022/05/11 02:44:39;;;;;;;7.05;3.75;;;;;;;;;;5027398;28;20060;-66
2022/05/11 02:47:06;;;;;;;7.18;3.80;;;;;;;;;;5027463;28;20045;-65
2022/05/11 02:49:32;;;;;;;6.03;3.45;;;;;;;;;;5028063;28;20135;-66
2022/05/11 02:51:59;;;;;;;7.78;3.95;;;;;;;;;;5030772;28;20045;-65
2022/05/11 02:54:26;;;;;;;7.70;3.90;;;;;;;;;;5029578;28;20091;-67
2022/05/11 02:56:52;;;;;;;7.85;4.07;;;;;;;;;;5028889;28;20455;-66
2022/05/11 02:59:19;;;;;;;8.35;3.95;;;;;;;;;;5029788;28;20071;-66
2022/05/11 03:01:46;;;;;;;6.45;3.65;;;;;;;;;;5029018;28;20125;-64
2022/05/11 03:04:12;;;;;;;7.05;3.92;;;;;;;;;;5028091;28;20033;-67
2022/05/11 03:06:40;;;;;;;6.38;3.65;;;;;;;;;;5031116;28;20160;-65
2022/05/11 03:09:06;;;;;;;7.65;3.80;;;;;;;;;;5029326;28;20116;-66
2022/05/11 03:11:34;;;;;;;7.97;4.60;;;;;;;;;;5028430;28;21017;-65
2022/05/11 03:14:00;;;;;;;7.50;3.75;;;;;;;;;;5021246;28;20038;-65
2022/05/11 03:16:27;;;;;;;6.47;3.80;;;;;;;;;;5027358;28;20794;-65
2022/05/11 03:18:54;;;;;;;8.02;3.90;;;;;;;;;;5028602;28;20037;-65
2022/05/11 03:21:21;;;;;;;8.20;3.90;;;;;;;;;;5028922;28;20485;-66
2022/05/11 03:23:48;;;;;;;9.32;4.22;;;;;;;;;;5025657;28;20041;-65
2022/05/11 03:26:14;;;;;;;10.70;3.90;;;;;;;;;;5027986;28;20040;-66
2022/05/11 03:28:41;;;;;;;6.63;3.83;;;;;;;;;;5025694;28;20041;-66
2022/05/11 03:31:08;;;;;;;7.95;3.95;;;;;;;;;;5027454;28;20117;-65
2022/05/11 03:36:21;;;;;;;7.90;3.40;;;;;;;;;;5028615;28;20532;-65
2022/05/11 03:38:47;;;;;;;6.68;3.65;;;;;;;;;;5030485;28;20034;-65
2022/05/11 03:41:14;;;;;;;7.30;3.95;;;;;;;;;;5025549;28;20045;-65
2022/05/11 03:43:41;;;;;;;8.63;4.03;;;;;;;;;;5027214;28;20045;-66
2022/05/11 03:46:08;;;;;;;12.48;4.20;;;;;;;;;;5011558;28;20054;-65
2022/05/11 03:48:35;;;;;;;7.18;4.13;;;;;;;;;;5028613;28;20474;-65
2022/05/11 03:51:01;;;;;;;8.60;4.40;;;;;;;;;;5028502;28;20065;-66
2022/05/11 03:53:28;;;;;;;8.98;4.20;;;;;;;;;;5027618;28;20041;-66
2022/05/11 03:55:55;;;;;;;9.40;4.32;;;;;;;;;;5029757;28;20041;-66
2022/05/11 03:58:21;;;;;;;7.45;4.20;;;;;;;;;;5028172;28;20037;-65
2022/05/11 04:00:48;;;;;;;10.48;4.28;;;;;;;;;;5031932;28;20063;-65
2022/05/11 04:03:15;;;;;;;8.43;4.10;;;;;;;;;;5029845;28;20288;-65
2022/05/11 04:05:42;;;;;;;11.52;4.95;;;;;;;;;;5027319;28;20049;-64
2022/05/11 04:08:09;;;;;;;8.35;4.55;;;;;;;;;;5029845;28;20124;-65
2022/05/11 04:10:36;;;;;;;11.25;5.07;;;;;;;;;;5029031;28;20037;-64
2022/05/11 04:13:04;;;;;;;9.75;4.55;;;;;;;;;;5027143;28;20115;-65
2022/05/11 04:15:31;;;;;;;10.18;5.05;;;;;;;;;;5024537;28;20033;-65
2022/05/11 04:17:58;;;;;;;10.63;5.80;;;;;;;;;;5029073;28;20037;-64
2022/05/11 04:20:25;;;;;;;9.38;4.55;;;;;;;;;;5027784;28;20401;-66
2022/05/11 04:22:52;;;;;;;10.55;5.22;;;;;;;;;;5028732;28;20049;-65
2022/05/11 04:25:19;;;;;;;9.68;4.28;;;;;;;;;;5026802;28;20046;-65
2022/05/11 04:27:48;;;;;;;7.63;4.40;;;;;;;;;;5028424;28;20052;-65
2022/05/11 04:30:15;;;;;;;9.63;4.57;;;;;;;;;;5027577;28;20043;-64
2022/05/11 04:32:42;;;;;;;10.23;5.28;;;;;;;;;;5027205;28;20208;-64
2022/05/11 04:35:09;;;;;;;9.55;4.72;;;;;;;;;;5026973;28;20952;-65
2022/05/11 04:37:36;;;;;;;12.20;4.95;;;;;;;;;;5027420;28;20033;-65
2022/05/11 04:40:04;;;;;;;10.25;5.22;;;;;;;;;;5029281;28;20039;-64
2022/05/11 04:42:30;;;;;;;8.60;4.57;;;;;;;;;;5028070;28;20029;-65
2022/05/11 04:44:57;;;;;;;11.77;5.22;;;;;;;;;;5029098;28;20083;-65
2022/05/11 04:47:24;;;;;;;9.70;5.15;;;;;;;;;;5028035;28;20123;-65
2022/05/11 04:49:53;;;;;;;9.32;4.82;;;;;;;;;;5029108;28;20045;-65
2022/05/11 04:52:20;;;;;;;8.73;4.50;;;;;;;;;;5027184;28;20076;-65
2022/05/11 04:54:50;;;;;;;13.02;5.25;;;;;;;;;;5028362;28;20573;-65
2022/05/11 04:57:20;;;;;;;8.30;4.50;;;;;;;;;;5025771;28;20123;-65
2022/05/11 04:59:47;;;;;;;10.85;4.75;;;;;;;;;;5026113;28;20101;-65
2022/05/11 05:02:15;;;;;;;9.05;4.60;;;;;;;;;;5028171;28;20504;-65
2022/05/11 05:04:42;;;;;;;14.05;4.95;;;;;;;;;;5026914;28;20099;-65
2022/05/11 05:07:09;;;;;;;17.33;4.95;;;;;;;;;;5027117;28;20064;-65
2022/05/11 05:09:35;;;;;;;11.93;5.05;;;;;;;;;;5027229;28;20133;-64
2022/05/11 05:12:02;;;;;;;8.63;4.65;;;;;;;;;;5027892;28;20111;-65
2022/05/11 05:14:29;;;;;;;13.75;4.85;;;;;;;;;;5025598;28;20056;-65
2022/05/11 05:17:06;;;;;;;8.85;4.93;;;;;;;;;;5029666;28;20040;-64
2022/05/11 05:19:32;;;;;;;9.07;4.50;;;;;;;;;;5027869;28;20041;-65
2022/05/11 05:22:02;;;;;;;11.88;4.70;;;;;;;;;;5028546;28;20044;-64
2022/05/11 05:24:30;;;;;;;11.85;4.85;;;;;;;;;;5027388;28;20041;-64
2022/05/11 05:26:57;;;;;;;9.38;4.80;;;;;;;;;;5018414;28;20041;-65
2022/05/11 05:32:10;;;;;;;11.90;4.90;;;;;;;;;;5029633;28;20611;-65
2022/05/11 05:34:37;;;;;;;8.98;4.43;;;;;;;;;;5027821;28;20064;-65
2022/05/11 05:37:03;;;;;;;11.57;5.65;;;;;;;;;;5027873;28;20123;-66
2022/05/11 05:39:30;;;;;;;13.27;5.47;;;;;;;;;;5028439;28;21706;-64
2022/05/11 05:41:57;;;;;;;10.10;4.90;;;;;;;;;;5028071;28;20485;-65
2022/05/11 05:44:29;;;;;;;9.88;4.95;;;;;;;;;;5027146;28;20442;-64
2022/05/11 05:46:57;;;;;;;10.13;4.07;;;;;;;;;;5021603;28;20107;-65
2022/05/11 05:49:23;;;;;;;11.65;5.05;;;;;;;;;;5015203;28;20809;-65
2022/05/11 05:51:50;;;;;;;9.75;4.50;;;;;;;;;;5032391;28;20071;-65
2022/05/11 05:54:17;;;;;;;11.25;4.90;;;;;;;;;;5032463;28;20079;-65
2022/05/11 05:56:43;;;;;;;8.43;4.30;;;;;;;;;;5031734;28;20042;-65
2022/05/11 05:59:11;;;;;;;8.00;4.68;;;;;;;;;;5031345;28;20061;-65
2022/05/11 06:01:38;;;;;;;11.30;4.90;;;;;;;;;;5031862;28;20165;-64
2022/05/11 06:04:05;;;;;;;11.13;5.43;;;;;;;;;;5032218;28;20034;-65
2022/05/11 06:06:32;;;;;;;15.90;5.47;;;;;;;;;;5030930;28;20124;-65
2022/05/11 06:08:59;;;;;;;10.10;5.60;;;;;;;;;;5033170;28;20140;-65
2022/05/11 06:11:26;;;;;;;11.32;5.72;;;;;;;;;;5030361;28;21644;-65
2022/05/11 06:13:52;;;;;;;14.13;6.50;;;;;;;;;;5031212;28;20064;-65
2022/05/11 06:16:19;;;;;;;17.67;6.97;;;;;;;;;;5030796;28;20064;-65
2022/05/11 06:18:46;;;;;;;12.90;7.22;;;;;;;;;;5031841;28;20103;-65
2022/05/11 06:21:14;;;;;;;11.73;6.72;;;;;;;;;;5031057;28;20136;-64
2022/05/11 06:23:41;;;;;;;13.82;6.95;;;;;;;;;;5030833;28;20877;-63
2022/05/11 06:26:08;;;;;;;13.10;7.45;;;;;;;;;;5030655;28;20080;-64
2022/05/11 06:28:40;;;;;;;12.68;6.50;;;;;;;;;;5031475;28;20057;-64
2022/05/11 06:31:07;;;;;;;15.07;6.78;;;;;;;;;;5031570;28;20048;-64
2022/05/11 06:33:34;;;;;;;14.23;7.72;;;;;;;;;;5029335;28;20044;-65
2022/05/11 06:36:01;;;;;;;17.00;7.32;;;;;;;;;;5032801;28;20099;-65
2022/05/11 06:38:28;;;;;;;15.23;7.60;;;;;;;;;;5031795;28;20049;-65
2022/05/11 06:40:54;;;;;;;15.57;8.18;;;;;;;;;;5029966;28;20037;-65
2022/05/11 06:43:21;;;;;;;16.55;8.05;;;;;;;;;;5029082;28;20103;-65
2022/05/11 06:45:48;;;;;;;16.05;7.40;;;;;;;;;;5031913;28;20049;-64
2022/05/11 06:48:15;;;;;;;16.15;7.90;;;;;;;;;;5031718;28;20051;-64
2022/05/11 06:50:44;;;;;;;13.75;7.72;;;;;;;;;;5031895;28;20045;-65
2022/05/11 06:53:12;;;;;;;13.77;7.68;;;;;;;;;;5032816;28;20128;-64
2022/05/11 07:01:10;;;;;;;14.93;7.65;;;;;;;;;;5033422;28;20040;-64
2022/05/11 07:03:37;;;;;;;14.55;7.63;;;;;;;;;;5030557;28;20086;-64
2022/05/11 07:06:04;;;;;;;14.25;7.70;;;;;;;;;;5031175;28;20041;-65
2022/05/11 07:08:35;;;;;;;16.77;8.50;;;;;;;;;;5031075;28;20105;-65
2022/05/11 07:13:47;;;;;;;16.05;8.35;;;;;;;;;;5032070;28;20391;-65
2022/05/11 07:16:14;;;;;;;17.38;8.65;;;;;;;;;;5032099;28;20145;-64
2022/05/11 07:18:41;;;;;;;13.70;7.55;;;;;;;;;;5030513;28;20033;-66
2022/05/11 07:21:08;;;;;;;12.48;7.25;;;;;;;;;;5030931;28;20073;-65
2022/05/11 07:23:35;;;;;;;16.15;8.30;;;;;;;;;;5030461;28;20044;-65
2022/05/11 07:26:02;;;;;;;14.52;8.30;;;;;;;;;;5030941;28;20074;-64
2022/05/11 07:28:28;;;;;;;14.70;8.18;;;;;;;;;;5030593;28;20044;-66
2022/05/11 07:30:55;;;;;;;17.20;8.48;;;;;;;;;;5030326;28;20232;-65
2022/05/11 07:33:22;;;;;;;18.80;8.52;;;;;;;;;;5032334;28;20040;-65
2022/05/11 07:35:48;;;;;;;14.90;8.57;;;;;;;;;;5031777;28;20079;-65
2022/05/11 07:38:17;;;;;;;15.85;7.72;;;;;;;;;;5031819;28;20073;-65
2022/05/11 07:40:44;;;;;;;14.73;8.13;;;;;;;;;;5030759;28;20140;-65
2022/05/11 07:43:11;;;;;;;15.55;8.15;;;;;;;;;;5031171;28;20037;-66
2022/05/11 07:45:39;;;;;;;14.63;8.50;;;;;;;;;;5030728;28;20111;-65
2022/05/11 07:48:06;;;;;;;14.75;8.18;;;;;;;;;;5024424;28;20068;-65
2022/05/11 07:50:33;;;;;;;16.88;8.68;;;;;;;;;;5030679;28;20429;-65
2022/05/11 07:53:00;;;;;;;18.08;8.82;;;;;;;;;;5029737;28;20040;-66
2022/05/11 07:55:28;;;;;;;16.48;7.43;;;;;;;;;;5028707;28;20072;-65
2022/05/11 08:00:40;;;;;;;18.00;8.95;;;;;;;;;;5029278;28;20076;-65
2022/05/11 08:03:11;;;;;;;20.00;9.30;;;;;;;;;;5012025;28;20037;-65
2022/05/11 08:05:38;;;;;;;15.13;8.13;;;;;;;;;;5030996;28;20049;-65
2022/05/11 08:08:06;;;;;;;19.40;7.93;;;;;;;;;;5029836;28;20033;-65
2022/05/11 08:10:35;;;;;;;17.48;8.43;;;;;;;;;;5027981;28;20049;-66
2022/05/11 08:13:06;;;;;;;17.15;9.27;;;;;;;;;;5029449;28;20783;-65
2022/05/11 08:15:33;;;;;;;15.60;8.02;;;;;;;;;;5030877;28;20391;-65
2022/05/11 08:18:00;;;;;;;16.83;8.77;;;;;;;;;;5031642;28;20032;-65
2022/05/11 08:20:32;;;;;;;17.00;8.57;;;;;;;;;;5028752;28;20072;-65
2022/05/11 08:23:00;;;;;;;15.13;7.85;;;;;;;;;;5028557;28;20043;-65
2022/05/11 08:25:29;;;;;;;18.35;8.40;;;;;;;;;;5028244;28;20131;-65
2022/05/11 08:27:57;;;;;;;15.88;8.25;;;;;;;;;;5029518;28;20130;-65
2022/05/11 08:33:22;;;;;;;16.75;7.75;;;;;;;;;;5028829;28;20079;-65
2022/05/11 08:35:50;;;;;;;15.32;8.30;;;;;;;;;;5029138;28;20135;-65
2022/05/11 08:38:17;;;;;;;14.52;7.82;;;;;;;;;;5028986;28;20401;-65
2022/05/11 08:43:20;;;;;;;19.33;8.40;;;;;;;;;;5048651;22;20454;-59
2022/05/11 08:46:05;;;;;;;17.90;9.13;;;;;;;;;;5045484;28;20064;-63
2022/05/11 08:48:56;;;;;;;17.38;8.30;;;;;;;;;;5045612;28;20059;-66
2022/05/11 08:51:31;;;;;;;14.07;7.82;;;;;;;;;;5048739;28;20040;-62
2022/05/11 08:54:18;;;;;;;17.00;8.38;;;;;;;;;;5048998;28;20207;-61
2022/05/11 08:56:46;;;;;;;18.48;8.48;;;;;;;;;;5020476;28;20037;-64
2022/05/11 08:59:19;;;;;;;19.73;8.50;;;;;;;;;;5049770;28;20033;-65
2022/05/11 09:01:59;;;;;;;22.83;9.35;;;;;;;;;;5047648;28;20079;-64
2022/05/11 09:04:55;;;;;;;14.85;7.47;;;;;;;;;;5048864;28;20050;-64
2022/05/11 09:07:22;;;;;;;16.38;7.93;;;;;;;;;;5032064;28;20404;-64
2022/05/11 09:09:49;;;;;;;19.27;8.95;;;;;;;;;;5050151;28;20032;-64
2022/05/11 09:12:16;;;;;;;16.45;8.90;;;;;;;;;;5049353;28;20885;-64
2022/05/11 09:14:53;;;;;;;18.38;9.15;;;;;;;;;;5047069;28;20041;-63
2022/05/11 09:17:31;;;;;;;18.23;8.75;;;;;;;;;;5046718;28;20739;-63
2022/05/11 09:20:06;;;;;;;16.63;9.00;;;;;;;;;;5048551;28;20036;-64
2022/05/11 09:22:35;;;;;;;18.35;9.52;;;;;;;;;;5027578;28;20508;-64
2022/05/11 09:25:14;;;;;;;20.02;9.55;;;;;;;;;;5048185;28;20047;-64
2022/05/11 09:27:41;;;;;;;16.38;8.60;;;;;;;;;;5046683;28;20048;-65
2022/05/11 09:30:08;;;;;;;22.08;9.38;;;;;;;;;;5048264;28;20041;-65
2022/05/11 09:32:38;;;;;;;22.42;9.52;;;;;;;;;;5047988;28;20037;-64
2022/05/11 09:35:22;;;;;;;21.15;10.18;;;;;;;;;;5032330;28;20040;-64
2022/05/11 09:37:59;;;;;;;20.77;9.60;;;;;;;;;;5049697;28;20156;-64
2022/05/11 09:40:27;;;;;;;17.42;10.00;;;;;;;;;;5049192;28;20052;-65
2022/05/11 09:42:59;;;;;;;21.90;9.15;;;;;;;;;;5047606;28;20100;-65
2022/05/11 09:45:44;;;;;;;18.10;9.93;;;;;;;;;;5046491;28;20143;-65
2022/05/11 09:48:13;;;;;;;17.48;8.57;;;;;;;;;;5038895;28;20033;-64
2022/05/11 09:50:42;;;;;;;15.73;8.75;;;;;;;;;;5037183;28;20049;-64
2022/05/11 09:53:11;;;;;;;20.08;9.20;;;;;;;;;;5050896;28;20171;-64
2022/05/11 09:55:38;;;;;;;18.35;9.55;;;;;;;;;;5050337;28;20142;-63
2022/05/11 09:58:06;;;;;;;19.63;9.70;;;;;;;;;;5052409;28;20036;-63
2022/05/11 10:00:35;;;;;;;20.60;9.27;;;;;;;;;;5051634;28;20041;-63
2022/05/11 10:03:04;;;;;;;19.15;9.75;;;;;;;;;;5050629;28;20040;-64
2022/05/11 10:05:38;;;;;;;20.63;9.25;;;;;;;;;;5049778;28;20098;-65
2022/05/11 10:08:18;;;;;;;21.35;9.88;;;;;;;;;;5051897;28;20052;-64
2022/05/11 10:10:48;;;;;;;18.48;9.25;;;;;;;;;;5052521;28;20075;-63
2022/05/11 10:13:26;;;;;;;18.83;9.48;;;;;;;;;;5032371;28;20036;-63
2022/05/11 10:24:31;;;;;;;16.23;8.70;;;;;;;;;;5047587;28;20031;-62
2022/05/11 10:27:01;;;;;;;19.83;9.82;;;;;;;;;;5045377;28;20053;-61
2022/05/11 10:29:46;;;;;;;19.35;9.23;;;;;;;;;;5045590;28;20048;-62
2022/05/11 10:32:18;;;;;;;18.20;9.13;;;;;;;;;;5048289;28;20374;-62
2022/05/11 10:34:54;;;;;;;17.70;9.45;;;;;;;;;;5051064;28;20131;-63
2022/05/11 10:37:29;;;;;;;18.85;9.63;;;;;;;;;;5051626;28;20800;-62
2022/05/11 10:40:02;;;;;;;17.38;9.18;;;;;;;;;;5052447;28;20051;-63
2022/05/11 10:42:44;;;;;;;19.70;9.73;;;;;;;;;;5050456;28;20055;-62
2022/05/11 10:45:20;;;;;;;26.95;10.48;;;;;;;;;;5051277;28;20796;-63
2022/05/11 10:48:05;;;;;;;21.75;9.38;;;;;;;;;;5050515;28;20501;-62
2022/05/11 10:50:32;;;;;;;19.27;9.60;;;;;;;;;;5047601;28;20062;-62
2022/05/11 10:53:05;;;;;;;24.70;10.20;;;;;;;;;;5053319;28;20476;-62
2022/05/11 10:55:32;;;;;;;21.48;11.05;;;;;;;;;;5049845;28;20061;-63
2022/05/11 10:58:19;;;;;;;23.25;10.52;;;;;;;;;;5051863;28;20064;-62
2022/05/11 11:00:48;;;;;;;19.83;9.75;;;;;;;;;;5051549;28;20047;-63
2022/05/11 11:03:30;;;;;;;21.40;9.85;;;;;;;;;;5053658;28;20115;-61
2022/05/11 11:08:54;;;;;;;28.65;10.50;;;;;;;;;;5050530;28;20046;-62
2022/05/11 11:11:33;;;;;;;28.13;11.02;;;;;;;;;;5051876;28;20045;-62
2022/05/11 11:14:02;;;;;;;21.85;10.85;;;;;;;;;;5055875;28;20083;-63
2022/05/11 11:16:32;;;;;;;21.48;11.13;;;;;;;;;;5056166;28;20048;-62
2022/05/11 11:18:59;;;;;;;24.10;10.05;;;;;;;;;;5038801;28;20048;-62
2022/05/11 11:21:27;;;;;;;25.35;10.98;;;;;;;;;;5053404;28;20048;-62
2022/05/11 11:24:17;;;;;;;26.08;11.10;;;;;;;;;;5051996;28;20571;-62
2022/05/11 11:26:57;;;;;;;22.52;11.00;;;;;;;;;;5031713;28;20049;-62
2022/05/11 11:29:26;;;;;;;19.17;10.05;;;;;;;;;;5029376;28;20041;-62
2022/05/11 11:32:02;;;;;;;22.42;10.05;;;;;;;;;;5033134;28;20032;-62
2022/05/11 11:34:38;;;;;;;23.17;9.32;;;;;;;;;;5030077;28;20041;-63
2022/05/11 11:37:34;;;;;;;22.35;10.07;;;;;;;;;;5032865;28;20041;-62
2022/05/11 11:40:21;;;;;;;20.27;10.63;;;;;;;;;;5035990;28;20068;-63
2022/05/11 11:42:48;;;;;;;28.10;10.63;;;;;;;;;;5048300;28;20106;-62
2022/05/11 11:45:28;;;;;;;18.50;8.77;;;;;;;;;;5048665;28;20516;-62
2022/05/11 11:48:01;;;;;;;17.80;9.38;;;;;;;;;;5033297;28;20044;-63
2022/05/11 11:50:46;;;;;;;19.90;9.40;;;;;;;;;;5046999;28;20382;-62
2022/05/11 11:53:21;;;;;;;20.40;9.98;;;;;;;;;;5049425;28;20041;-63
2022/05/11 11:55:48;;;;;;;23.13;9.65;;;;;;;;;;5047714;28;20602;-62
2022/05/11 11:58:25;;;;;;;21.10;9.55;;;;;;;;;;5051113;28;20033;-63
2022/05/11 12:00:57;;;;;;;20.23;9.38;;;;;;;;;;5048780;28;20056;-62
2022/05/11 12:03:24;;;;;;;18.58;7.88;;;;;;;;;;5048556;28;20056;-62
2022/05/11 12:17:08;;;;;;;22.90;9.93;;;;;;;;;;5054287;28;20060;-63
2022/05/11 12:19:36;;;;;;;20.15;8.93;;;;;;;;;;5051710;28;20116;-63
2022/05/11 12:22:22;;;;;;;20.98;10.05;;;;;;;;;;5049610;28;20114;-64
2022/05/11 12:24:57;;;;;;;17.40;9.27;;;;;;;;;;5051009;28;20541;-64
2022/05/11 12:27:27;;;;;;;17.23;9.23;;;;;;;;;;5050087;28;20066;-66
2022/05/11 12:29:59;;;;;;;17.83;9.35;;;;;;;;;;5049531;28;20744;-65
2022/05/11 12:32:29;;;;;;;18.98;8.55;;;;;;;;;;5049408;28;20037;-64
2022/05/11 12:34:56;;;;;;;19.55;8.88;;;;;;;;;;5049934;28;20094;-64
2022/05/11 12:37:30;;;;;;;21.63;9.93;;;;;;;;;;5051434;28;20036;-63
2022/05/11 12:39:59;;;;;;;19.52;9.07;;;;;;;;;;5050947;28;20055;-64
2022/05/11 12:42:30;;;;;;;19.35;9.30;;;;;;;;;;5047026;28;20037;-64
2022/05/11 12:44:56;;;;;;;14.50;8.20;;;;;;;;;;5037344;28;20821;-62
2022/05/11 12:47:23;;;;;;;13.98;7.72;;;;;;;;;;5046521;28;20048;-63
2022/05/11 12:49:50;;;;;;;17.80;7.13;;;;;;;;;;5047739;28;20037;-63
2022/05/11 12:52:17;;;;;;;18.45;7.55;;;;;;;;;;5046512;28;20113;-63
2022/05/11 12:55:04;;;;;;;14.95;8.43;;;;;;;;;;5031020;28;20492;-63
2022/05/11 12:57:39;;;;;;;18.00;8.00;;;;;;;;;;5033662;28;20411;-63
2022/05/11 13:00:19;;;;;;;16.13;8.02;;;;;;;;;;5052776;28;20047;-63
2022/05/11 13:02:48;;;;;;;13.88;7.10;;;;;;;;;;5052343;28;20664;-64
2022/05/11 13:05:16;;;;;;;12.93;6.63;;;;;;;;;;5049998;28;20037;-64
2022/05/11 13:07:50;;;;;;;13.10;6.75;;;;;;;;;;5047731;28;20045;-62
2022/05/11 13:10:33;;;;;;;12.02;7.30;;;;;;;;;;5049397;28;20036;-64
2022/05/11 13:13:01;;;;;;;15.50;7.55;;;;;;;;;;5049025;28;20051;-63
2022/05/11 13:15:35;;;;;;;16.50;6.82;;;;;;;;;;5047385;28;20036;-64
2022/05/11 13:18:01;;;;;;;;;;;;;;;;;;5049526;28;20041;-63
2022/05/11 13:20:29;;;;;;;13.10;6.63;;;;;;;;;;5046906;28;19929;-64
2022/05/11 13:23:01;;;;;;;13.15;6.63;;;;;;;;;;5048624;28;20128;-64
2022/05/11 13:25:40;;;;;;;16.10;6.60;;;;;;;;;;5045456;28;20123;-64
2022/05/11 13:28:27;;;;;;;12.75;5.80;;;;;;;;;;5047640;28;20041;-63
2022/05/11 13:31:13;;;;;;;11.32;5.68;;;;;;;;;;5026486;28;20444;-62
2022/05/11 13:33:42;;;;;;;12.13;5.93;;;;;;;;;;5011877;28;20059;-63
2022/05/11 13:36:11;;;;;;;8.68;5.28;;;;;;;;;;5041996;28;20033;-64
2022/05/11 13:38:37;;;;;;;11.15;5.03;;;;;;;;;;5045603;28;20239;-64
2022/05/11 13:41:07;;;;;;;10.95;5.65;;;;;;;;;;5049904;28;20040;-62
2022/05/11 13:43:35;;;;;;;8.95;4.45;;;;;;;;;;5045926;28;20326;-64
2022/05/11 13:46:02;;;;;;;9.23;4.65;;;;;;;;;;5047311;28;20048;-64
2022/05/11 13:48:33;;;;;;;11.18;5.20;;;;;;;;;;5046295;28;20041;-63
2022/05/11 13:51:15;;;;;;;12.27;4.85;;;;;;;;;;5045990;28;20040;-64
2022/05/11 13:53:42;;;;;;;7.68;4.03;;;;;;;;;;5045927;28;20044;-63
2022/05/11 13:56:11;;;;;;;10.40;4.30;;;;;;;;;;5048376;28;20070;-63
2022/05/11 13:58:41;;;;;;;8.05;3.83;;;;;;;;;;5051836;28;20373;-64
2022/05/11 14:01:12;;;;;;;7.95;3.55;;;;;;;;;;5048836;28;20094;-64
2022/05/11 14:03:42;;;;;;;8.63;3.20;;;;;;;;;;5046550;28;20036;-64
2022/05/11 14:06:16;;;;;;;9.77;3.72;;;;;;;;;;5047249;28;20101;-64
2022/05/11 14:08:43;;;;;;;7.90;3.70;;;;;;;;;;5050398;28;20045;-64
2022/05/11 14:11:10;;;;;;;10.45;3.88;;;;;;;;;;5052493;28;20047;-64
2022/05/11 14:13:37;;;;;;;6.93;3.45;;;;;;;;;;5051447;28;20045;-63
2022/05/11 14:16:09;;;;;;;8.20;2.85;;;;;;;;;;5052871;28;20063;-64
2022/05/11 14:18:40;;;;;;;9.32;3.42;;;;;;;;;;5050968;28;20052;-63
2022/05/11 14:21:07;;;;;;;8.93;2.90;;;;;;;;;;5050988;28;20045;-63
2022/05/11 14:23:34;;;;;;;7.38;3.20;;;;;;;;;;5046332;28;20043;-63
2022/05/11 14:26:01;;;;;;;9.73;2.97;;;;;;;;;;5043045;28;20400;-63
2022/05/11 14:28:27;;;;;;;10.07;2.95;;;;;;;;;;5050140;28;20047;-64
2022/05/11 14:30:54;;;;;;;8.52;2.90;;;;;;;;;;5050778;28;20894;-64
2022/05/11 14:33:22;;;;;;;5.90;2.70;;;;;;;;;;5049084;28;20429;-63
2022/05/11 14:35:49;;;;;;;7.18;3.17;;;;;;;;;;5051241;28;20465;-63
2022/05/11 14:38:16;;;;;;;8.82;3.05;;;;;;;;;;5051181;28;20115;-64
2022/05/11 14:40:44;;;;;;;8.10;2.75;;;;;;;;;;5050094;28;20041;-63
2022/05/11 14:43:11;;;;;;;5.60;2.38;;;;;;;;;;5046577;28;20051;-63
2022/05/11 14:45:38;;;;;;;5.95;2.63;;;;;;;;;;5049039;28;20139;-64
2022/05/11 14:48:06;;;;;;;8.50;2.53;;;;;;;;;;5051407;28;20492;-64
2022/05/11 14:50:33;;;;;;;8.23;2.70;;;;;;;;;;5050198;28;20048;-62
2022/05/11 14:53:04;;;;;;;5.45;2.50;;;;;;;;;;5049063;28;20572;-63
2022/05/11 14:55:30;;;;;;;5.25;2.20;;;;;;;;;;5050199;28;20042;-64
2022/05/11 15:03:29;;;;;;;8.32;1.70;;;;;;;;;;5050321;28;20044;-63
2022/05/11 15:05:57;;;;;;;3.97;1.70;;;;;;;;;;5050574;28;20049;-63
2022/05/11 15:08:24;;;;;;;4.72;2.15;;;;;;;;;;5048830;28;20063;-63
2022/05/11 15:13:30;;;;;;;5.57;1.95;;;;;;;;;;5050964;28;20041;-63
2022/05/11 15:13:37;;;;;;;5.00;2.10;;;;;;;;;;5050510;28;20128;-63
2022/05/11 15:16:04;;;;;;;4.35;2.03;;;;;;;;;;5050964;28;20040;-64
2022/05/11 15:18:31;;;;;;;5.38;1.80;;;;;;;;;;5048998;28;20060;-64
2022/05/11 15:20:58;;;;;;;7.47;2.00;;;;;;;;;;5052190;28;20079;-64
2022/05/11 15:23:25;;;;;;;5.22;2.17;;;;;;;;;;5050379;28;20486;-63
2022/05/11 15:25:51;;;;;;;6.80;2.00;;;;;;;;;;5050239;28;20052;-63
2022/05/11 15:28:19;;;;;;;10.40;2.03;;;;;;;;;;5051559;28;20037;-63
2022/05/11 15:30:47;;;;;;;5.55;2.10;;;;;;;;;;5050989;28;20097;-65
2022/05/11 15:33:18;;;;;;;6.40;1.92;;;;;;;;;;5051030;28;20033;-63
2022/05/11 15:35:46;;;;;;;4.15;1.65;;;;;;;;;;5051087;28;20238;-64
2022/05/11 15:38:13;;;;;;;7.88;2.10;;;;;;;;;;5049784;28;20547;-64
2022/05/11 15:40:40;;;;;;;4.25;1.77;;;;;;;;;;5049431;28;20091;-64
2022/05/11 15:43:08;;;;;;;6.60;2.05;;;;;;;;;;5051710;28;20047;-64
2022/05/11 15:45:36;;;;;;;5.72;2.20;;;;;;;;;;5051100;28;20144;-64
2022/05/11 15:48:04;;;;;;;4.35;1.60;;;;;;;;;;5051508;28;20048;-64